Time;durP1;ratioP1;P1;durP2;ratioP2;P2;SDS_P1;SDS_P2;PMS_P1;PMS_P2;Temp;Humidity;BMP_temperature;BMP_pressure;BME280_temperature;BME280_humidity;BME280_pressure;Samples;Min_cycle;Max_cycle;Signal;HPM_P1;HPM_P2
2023/04/29 00:00:47;;;;;;;0.90;0.70;;;22.50;65.90;;;;;;5118428;27;20469;-68
2023/04/29 00:03:14;;;;;;;0.97;0.80;;;22.60;66.00;;;;;;5122848;27;20890;-66
2023/04/29 00:05:42;;;;;;;1.00;0.80;;;22.50;66.00;;;;;;5128405;27;20528;-71
2023/04/29 00:08:10;;;;;;;1.80;0.97;;;22.50;66.00;;;;;;5119080;27;20458;-63
2023/04/29 00:10:39;;;;;;;0.93;0.70;;;22.50;66.00;;;;;;5116796;27;20455;-59
2023/04/29 00:13:06;;;;;;;1.23;0.80;;;22.50;66.00;;;;;;5110705;27;20458;-63
2023/04/29 00:15:36;;;;;;;1.10;0.90;;;22.50;65.70;;;;;;5111508;27;20469;-62
2023/04/29 00:18:06;;;;;;;1.20;1.05;;;22.50;65.60;;;;;;5121605;27;20461;-61
2023/04/29 00:20:33;;;;;;;2.25;1.00;;;22.40;65.70;;;;;;5122280;27;20192;-64
2023/04/29 00:23:01;;;;;;;2.17;0.93;;;22.40;66.60;;;;;;5120518;27;20212;-64
2023/04/29 00:25:30;;;;;;;5.33;1.10;;;22.40;65.60;;;;;;5115705;27;20512;-61
2023/04/29 00:28:03;;;;;;;1.50;1.10;;;22.40;65.70;;;;;;5126812;27;20544;-61
2023/04/29 00:30:31;;;;;;;1.27;0.90;;;22.40;65.70;;;;;;5121860;27;20896;-64
2023/04/29 00:32:58;;;;;;;1.20;1.10;;;22.30;65.60;;;;;;5128593;27;20459;-60
2023/04/29 00:35:25;;;;;;;1.00;0.88;;;22.30;65.60;;;;;;5118417;27;20546;-63
2023/04/29 00:37:57;;;;;;;1.40;1.30;;;22.30;65.50;;;;;;5124886;27;20185;-60
2023/04/29 00:40:25;;;;;;;1.20;1.03;;;22.30;65.50;;;;;;5120846;27;20991;-64
2023/04/29 00:42:52;;;;;;;1.17;0.90;;;22.20;65.30;;;;;;5121050;27;20446;-62
2023/04/29 00:45:22;;;;;;;1.20;0.90;;;22.20;65.30;;;;;;5116762;27;20462;-63
2023/04/29 00:47:51;;;;;;;1.70;1.05;;;22.20;65.30;;;;;;5110100;27;20470;-63
2023/04/29 00:50:21;;;;;;;1.10;1.00;;;22.20;65.30;;;;;;5108981;27;20277;-64
2023/04/29 00:52:48;;;;;;;1.10;0.90;;;22.20;65.30;;;;;;5113053;27;20239;-62
2023/04/29 00:55:16;;;;;;;1.20;0.93;;;22.20;65.20;;;;;;5121200;27;20204;-64
2023/04/29 00:57:47;;;;;;;1.02;0.93;;;22.20;65.30;;;;;;5123674;27;20228;-63
2023/04/29 01:00:16;;;;;;;2.60;1.00;;;22.10;65.20;;;;;;5111037;27;21014;-64
2023/04/29 01:02:43;;;;;;;1.10;0.80;;;22.10;65.10;;;;;;5118792;27;20216;-63
2023/04/29 01:05:10;;;;;;;1.50;1.02;;;22.10;65.10;;;;;;5120688;27;20442;-62
2023/04/29 01:07:45;;;;;;;1.30;1.20;;;22.00;65.10;;;;;;5121313;27;20220;-64
2023/04/29 01:10:20;;;;;;;1.10;1.00;;;22.10;65.20;;;;;;5118194;27;20668;-63
2023/04/29 01:13:07;;;;;;;1.52;0.90;;;22.00;65.10;;;;;;5122798;27;20184;-62
2023/04/29 01:15:41;;;;;;;1.23;1.00;;;22.00;65.10;;;;;;5114956;27;20652;-63
2023/04/29 01:18:22;;;;;;;2.38;1.08;;;22.00;65.10;;;;;;5121401;27;20218;-63
2023/04/29 01:20:50;;;;;;;1.65;1.10;;;22.00;65.10;;;;;;5127067;27;20660;-63
2023/04/29 01:23:22;;;;;;;2.75;0.98;;;21.90;64.90;;;;;;5106988;27;21445;-65
2023/04/29 01:25:50;;;;;;;1.25;0.80;;;21.90;65.00;;;;;;5109363;27;21008;-65
2023/04/29 01:28:35;;;;;;;4.35;1.00;;;21.90;65.00;;;;;;5111540;27;20200;-62
2023/04/29 01:31:08;;;;;;;1.42;0.90;;;21.90;65.00;;;;;;5120022;27;20189;-64
2023/04/29 01:33:41;;;;;;;1.50;1.00;;;21.90;65.00;;;;;;5115701;27;20277;-64
2023/04/29 01:36:16;;;;;;;0.90;0.80;;;21.90;65.10;;;;;;5123466;27;20461;-62
2023/04/29 01:38:51;;;;;;;1.10;1.00;;;21.80;65.00;;;;;;5115216;27;20196;-64
2023/04/29 01:41:27;;;;;;;2.05;0.80;;;21.80;65.00;;;;;;5115110;27;20277;-63
2023/04/29 01:43:58;;;;;;;1.00;0.90;;;21.80;65.00;;;;;;5126571;27;20788;-64
2023/04/29 01:46:25;;;;;;;0.90;0.80;;;21.80;65.10;;;;;;5121615;27;20193;-63
2023/04/29 01:48:53;;;;;;;1.20;0.98;;;21.80;65.10;;;;;;5128680;27;20241;-62
2023/04/29 01:51:20;;;;;;;1.00;0.90;;;21.80;65.10;;;;;;5120440;27;20288;-62
2023/04/29 01:53:47;;;;;;;1.20;0.90;;;21.70;65.00;;;;;;5120526;27;20671;-64
2023/04/29 01:56:14;;;;;;;1.15;1.05;;;21.70;65.00;;;;;;5119907;28;20201;-64
2023/04/29 01:58:42;;;;;;;1.00;0.90;;;21.70;65.00;;;;;;5124911;28;20254;-62
2023/04/29 02:01:10;;;;;;;1.10;1.00;;;21.70;65.00;;;;;;5122413;28;20219;-62
2023/04/29 02:03:37;;;;;;;1.05;0.80;;;21.60;65.00;;;;;;5121135;27;20224;-62
2023/04/29 02:06:05;;;;;;;1.27;1.00;;;21.60;65.00;;;;;;5127135;28;20587;-63
2023/04/29 02:08:32;;;;;;;1.48;1.27;;;21.60;65.00;;;;;;5123417;27;20568;-62
2023/04/29 02:10:59;;;;;;;1.20;0.73;;;21.60;65.10;;;;;;5117435;28;20193;-63
2023/04/29 02:13:26;;;;;;;1.30;0.98;;;21.60;65.00;;;;;;5121275;27;20212;-63
2023/04/29 02:15:54;;;;;;;1.00;0.80;;;21.50;65.00;;;;;;5122655;28;20626;-63
2023/04/29 02:18:21;;;;;;;1.10;0.85;;;21.60;65.10;;;;;;5115202;27;20242;-63
2023/04/29 02:20:49;;;;;;;1.02;0.93;;;21.50;65.00;;;;;;5116669;27;20255;-63
2023/04/29 02:23:16;;;;;;;0.90;0.73;;;21.50;65.10;;;;;;5121755;28;20224;-64
2023/04/29 02:25:42;;;;;;;1.25;0.88;;;21.50;65.00;;;;;;5117331;27;20194;-63
2023/04/29 02:28:09;;;;;;;0.90;0.80;;;21.50;65.10;;;;;;5103272;27;20193;-63
2023/04/29 02:30:36;;;;;;;1.10;1.00;;;21.50;65.00;;;;;;5099950;27;20285;-64
2023/04/29 02:33:04;;;;;;;1.08;0.98;;;21.40;65.00;;;;;;5101621;27;20253;-63
2023/04/29 02:35:30;;;;;;;1.58;1.15;;;21.40;65.00;;;;;;5122509;27;20197;-63
2023/04/29 02:37:57;;;;;;;1.10;1.00;;;21.40;65.00;;;;;;5111014;27;20255;-64
2023/04/29 02:40:25;;;;;;;1.20;1.10;;;21.40;65.10;;;;;;5113987;27;20254;-63
2023/04/29 02:42:52;;;;;;;1.35;1.17;;;21.40;65.10;;;;;;5124569;27;20193;-62
2023/04/29 02:45:19;;;;;;;1.80;1.10;;;21.40;65.10;;;;;;5124804;27;20746;-63
2023/04/29 02:47:45;;;;;;;1.10;1.00;;;21.30;65.00;;;;;;5128667;27;20606;-63
2023/04/29 02:50:13;;;;;;;1.75;1.00;;;21.40;65.10;;;;;;5126108;27;20213;-62
2023/04/29 02:52:41;;;;;;;1.15;1.02;;;21.40;65.10;;;;;;5130670;27;20211;-63
2023/04/29 02:55:08;;;;;;;1.00;0.80;;;21.40;65.20;;;;;;5127829;27;20593;-63
2023/04/29 02:57:35;;;;;;;2.13;0.95;;;21.30;65.10;;;;;;5126693;27;20275;-63
2023/04/29 03:00:02;;;;;;;1.13;1.00;;;21.30;65.10;;;;;;5124369;27;20201;-63
2023/04/29 03:02:29;;;;;;;1.10;0.82;;;21.30;65.10;;;;;;5128615;27;20279;-62
2023/04/29 03:04:56;;;;;;;1.13;1.00;;;21.30;65.10;;;;;;5128116;27;20687;-62
2023/04/29 03:07:24;;;;;;;1.10;0.90;;;21.30;65.20;;;;;;5121408;27;20297;-63
2023/04/29 03:09:51;;;;;;;1.17;0.90;;;21.30;65.10;;;;;;5120646;27;20230;-63
2023/04/29 03:12:17;;;;;;;1.13;1.02;;;21.20;65.00;;;;;;5124821;27;20199;-62
2023/04/29 03:14:44;;;;;;;1.20;1.00;;;21.20;65.10;;;;;;5125020;27;20198;-64
2023/04/29 03:17:10;;;;;;;1.00;0.80;;;21.20;65.10;;;;;;5126064;27;20196;-63
2023/04/29 03:19:37;;;;;;;1.17;1.05;;;21.20;65.10;;;;;;5126704;27;20265;-62
2023/04/29 03:22:04;;;;;;;1.10;0.90;;;21.20;65.20;;;;;;5121300;27;20219;-63
2023/04/29 03:24:32;;;;;;;1.30;0.95;;;21.20;65.20;;;;;;5127087;27;20256;-63
2023/04/29 03:26:59;;;;;;;1.17;1.08;;;21.20;65.20;;;;;;5124525;27;20281;-64
2023/04/29 03:29:27;;;;;;;1.20;1.00;;;21.10;65.10;;;;;;5124575;27;20257;-64
2023/04/29 03:31:53;;;;;;;1.88;1.05;;;21.20;65.20;;;;;;5123704;27;20668;-62
2023/04/29 03:34:20;;;;;;;1.10;1.00;;;21.10;65.20;;;;;;5123386;27;20196;-63
2023/04/29 03:36:47;;;;;;;1.10;1.00;;;21.10;65.20;;;;;;5116029;27;20280;-64
2023/04/29 03:39:14;;;;;;;1.30;0.95;;;21.10;65.20;;;;;;5118347;27;21875;-63
2023/04/29 03:41:42;;;;;;;1.10;0.90;;;21.10;65.20;;;;;;5106218;27;20189;-63
2023/04/29 03:44:09;;;;;;;1.50;1.13;;;21.10;65.20;;;;;;5111367;27;20189;-63
2023/04/29 03:46:35;;;;;;;1.00;0.90;;;21.10;65.20;;;;;;5116430;27;20197;-62
2023/04/29 03:49:02;;;;;;;1.17;0.90;;;21.10;65.20;;;;;;5126424;27;20201;-63
2023/04/29 03:51:29;;;;;;;0.90;0.70;;;21.10;65.20;;;;;;5122802;27;20236;-62
2023/04/29 03:53:56;;;;;;;1.20;1.10;;;21.00;65.10;;;;;;5114028;27;20208;-63
2023/04/29 03:56:24;;;;;;;1.08;0.98;;;21.00;65.10;;;;;;5113426;27;20207;-64
2023/04/29 03:58:52;;;;;;;1.20;1.00;;;21.00;65.10;;;;;;5104945;27;20201;-63
2023/04/29 04:01:19;;;;;;;1.05;0.95;;;21.00;65.10;;;;;;5115150;27;20234;-64
2023/04/29 04:03:46;;;;;;;1.02;0.90;;;21.00;65.30;;;;;;5106156;27;20736;-63
2023/04/29 04:06:13;;;;;;;1.00;0.88;;;21.00;65.30;;;;;;5125992;27;20290;-63
2023/04/29 04:08:40;;;;;;;1.10;0.90;;;21.00;65.30;;;;;;5116515;27;20289;-63
2023/04/29 04:11:08;;;;;;;1.10;1.00;;;21.00;65.30;;;;;;5125349;27;20248;-63
2023/04/29 04:13:35;;;;;;;1.40;0.98;;;20.90;65.10;;;;;;5119254;27;20609;-64
2023/04/29 04:16:03;;;;;;;1.10;0.90;;;21.00;65.30;;;;;;5111332;27;20755;-63
2023/04/29 04:18:30;;;;;;;1.45;0.80;;;21.00;65.30;;;;;;5114977;27;20205;-63
2023/04/29 04:20:56;;;;;;;1.00;0.90;;;21.00;65.30;;;;;;5119509;27;20225;-62
2023/04/29 04:23:23;;;;;;;1.05;0.93;;;20.90;65.20;;;;;;5115953;27;20213;-63
2023/04/29 04:25:52;;;;;;;1.00;0.80;;;20.90;65.30;;;;;;5129121;27;20678;-63
2023/04/29 04:28:18;;;;;;;1.10;1.00;;;20.90;65.30;;;;;;5117112;27;20207;-63
2023/04/29 04:30:46;;;;;;;1.02;0.93;;;20.90;65.30;;;;;;5111749;27;20242;-63
2023/04/29 04:33:14;;;;;;;1.15;1.05;;;20.90;65.30;;;;;;5123430;27;20218;-63
2023/04/29 04:35:41;;;;;;;1.30;1.20;;;20.90;65.40;;;;;;5116823;27;20204;-64
2023/04/29 04:38:08;;;;;;;1.13;1.00;;;20.90;65.40;;;;;;5115333;27;20197;-63
2023/04/29 04:40:34;;;;;;;1.10;0.90;;;20.90;65.40;;;;;;5127380;27;20314;-63
2023/04/29 04:43:01;;;;;;;1.00;0.90;;;20.90;65.40;;;;;;5125966;27;20193;-63
2023/04/29 04:45:28;;;;;;;1.38;1.27;;;20.80;65.30;;;;;;5109024;27;20258;-64
2023/04/29 04:47:55;;;;;;;1.58;0.90;;;20.80;65.30;;;;;;5110035;27;20217;-64
2023/04/29 04:50:23;;;;;;;1.20;1.00;;;20.80;65.30;;;;;;5126177;27;20215;-62
2023/04/29 04:52:50;;;;;;;1.02;0.93;;;20.80;65.30;;;;;;5115930;27;20192;-64
2023/04/29 04:55:17;;;;;;;1.30;1.20;;;20.80;65.40;;;;;;5123360;27;20193;-63
2023/04/29 04:57:44;;;;;;;1.10;0.95;;;20.80;65.30;;;;;;5112307;27;20652;-60
2023/04/29 05:00:12;;;;;;;1.00;0.90;;;20.80;65.40;;;;;;5114318;27;20568;-63
2023/04/29 05:02:38;;;;;;;1.30;1.10;;;20.80;65.40;;;;;;5121742;27;20204;-63
2023/04/29 05:05:05;;;;;;;1.10;0.90;;;20.80;65.40;;;;;;5121192;27;20193;-62
2023/04/29 05:07:34;;;;;;;1.10;1.00;;;20.80;65.40;;;;;;5105568;27;20220;-64
2023/04/29 05:10:01;;;;;;;1.50;1.00;;;20.70;65.40;;;;;;5110828;27;20634;-62
2023/04/29 05:12:29;;;;;;;1.05;0.95;;;20.80;65.50;;;;;;5123091;27;20225;-63
2023/04/29 05:14:56;;;;;;;1.02;0.93;;;20.70;65.40;;;;;;5113758;27;20660;-62
2023/04/29 05:17:23;;;;;;;1.27;1.10;;;20.70;65.40;;;;;;5118163;27;20200;-63
2023/04/29 05:19:50;;;;;;;1.02;0.93;;;20.70;65.40;;;;;;5129285;27;20242;-63
2023/04/29 05:22:16;;;;;;;1.10;0.90;;;20.80;65.50;;;;;;5106252;27;20266;-63
2023/04/29 05:24:47;;;;;;;1.33;1.23;;;20.80;65.50;;;;;;5117331;27;20201;-63
2023/04/29 05:27:13;;;;;;;1.00;0.90;;;20.80;65.50;;;;;;5126886;27;20207;-63
2023/04/29 05:29:40;;;;;;;1.23;1.10;;;20.80;65.50;;;;;;5114549;27;20196;-63
2023/04/29 05:32:07;;;;;;;1.25;0.90;;;20.80;65.50;;;;;;5123006;27;20192;-62
2023/04/29 05:34:33;;;;;;;1.92;1.05;;;20.80;65.50;;;;;;5101058;27;20909;-63
2023/04/29 05:37:01;;;;;;;1.33;0.70;;;20.90;65.60;;;;;;5111612;27;20201;-62
2023/04/29 05:39:27;;;;;;;1.10;0.90;;;20.90;65.60;;;;;;5107398;27;20202;-63
2023/04/29 05:41:55;;;;;;;1.38;1.10;;;20.90;65.60;;;;;;5122886;27;20209;-62
2023/04/29 05:44:22;;;;;;;1.10;1.00;;;20.90;65.60;;;;;;5124950;27;20591;-63
2023/04/29 05:46:50;;;;;;;0.90;0.80;;;20.90;65.50;;;;;;5113764;27;20203;-63
2023/04/29 05:49:17;;;;;;;1.10;1.00;;;20.90;65.50;;;;;;5129185;28;20200;-63
2023/04/29 05:51:43;;;;;;;0.90;0.80;;;20.90;65.50;;;;;;5125998;28;20220;-63
2023/04/29 05:54:10;;;;;;;1.00;0.90;;;20.90;65.50;;;;;;5108501;27;20206;-63
2023/04/29 05:56:37;;;;;;;1.10;1.00;;;20.90;65.50;;;;;;5116948;27;20254;-63
2023/04/29 05:59:05;;;;;;;1.00;0.85;;;20.90;65.60;;;;;;5123918;27;20193;-63
2023/04/29 06:01:32;;;;;;;1.05;0.95;;;20.90;65.60;;;;;;5119188;28;20201;-63
2023/04/29 06:03:59;;;;;;;1.10;1.00;;;20.90;65.50;;;;;;5120539;27;20209;-63
2023/04/29 06:06:26;;;;;;;1.13;0.90;;;20.90;65.50;;;;;;5115262;27;20218;-64
2023/04/29 06:08:53;;;;;;;0.90;0.80;;;20.90;65.50;;;;;;5109212;27;20235;-64
2023/04/29 06:11:19;;;;;;;1.00;0.80;;;20.90;65.50;;;;;;5117715;27;20727;-63
2023/04/29 06:13:46;;;;;;;1.10;1.00;;;20.90;65.50;;;;;;5117027;27;20205;-63
2023/04/29 06:16:14;;;;;;;0.90;0.75;;;20.90;65.50;;;;;;5124336;27;20199;-63
2023/04/29 06:18:41;;;;;;;1.00;0.90;;;21.00;65.60;;;;;;5123429;27;20249;-61
2023/04/29 06:21:07;;;;;;;1.02;0.90;;;20.90;65.50;;;;;;5122835;27;20342;-64
2023/04/29 06:23:34;;;;;;;0.93;0.77;;;20.90;65.50;;;;;;5121685;27;20220;-61
2023/04/29 06:26:01;;;;;;;1.13;0.90;;;21.00;65.60;;;;;;5123843;27;20201;-62
2023/04/29 06:28:28;;;;;;;1.10;0.98;;;20.90;65.50;;;;;;5131983;27;20204;-61
2023/04/29 06:30:55;;;;;;;1.10;1.00;;;21.00;65.50;;;;;;5124976;27;20223;-63
2023/04/29 06:33:23;;;;;;;1.00;0.90;;;21.00;65.50;;;;;;5129703;27;20193;-62
2023/04/29 06:35:50;;;;;;;1.00;0.80;;;21.00;65.60;;;;;;5125518;27;20197;-61
2023/04/29 06:38:17;;;;;;;1.25;0.90;;;21.00;65.70;;;;;;5120650;27;20201;-62
2023/04/29 06:40:43;;;;;;;0.95;0.85;;;21.00;65.50;;;;;;5131801;27;20203;-61
2023/04/29 06:43:10;;;;;;;1.20;1.02;;;21.00;65.50;;;;;;5131825;27;20200;-64
2023/04/29 06:45:37;;;;;;;0.90;0.80;;;21.00;65.60;;;;;;5125400;27;20192;-62
2023/04/29 06:48:04;;;;;;;1.00;0.80;;;21.00;65.60;;;;;;5115329;27;20203;-63
2023/04/29 06:50:32;;;;;;;0.90;0.80;;;21.00;65.60;;;;;;5129920;27;20216;-62
2023/04/29 06:52:59;;;;;;;1.10;0.90;;;21.00;65.60;;;;;;5131241;27;20205;-64
2023/04/29 06:55:28;;;;;;;1.00;0.90;;;21.00;65.60;;;;;;5127660;27;20189;-63
2023/04/29 06:57:56;;;;;;;1.60;0.90;;;21.00;65.60;;;;;;5122185;27;20647;-64
2023/04/29 07:00:23;;;;;;;1.00;0.90;;;21.00;65.70;;;;;;5123705;27;20569;-63
2023/04/29 07:02:49;;;;;;;1.00;0.80;;;21.00;65.60;;;;;;5105145;27;20207;-64
2023/04/29 07:05:17;;;;;;;1.00;0.90;;;21.00;65.60;;;;;;5125128;27;20197;-63
2023/04/29 07:07:45;;;;;;;1.00;0.80;;;21.00;65.60;;;;;;5124018;27;20221;-64
2023/04/29 07:10:11;;;;;;;1.10;0.93;;;21.00;65.70;;;;;;5111505;27;20199;-62
2023/04/29 07:12:38;;;;;;;1.17;1.00;;;21.00;65.70;;;;;;5115061;27;20269;-62
2023/04/29 07:15:06;;;;;;;0.98;0.80;;;21.00;65.70;;;;;;5121990;27;20683;-63
2023/04/29 07:17:32;;;;;;;1.10;1.00;;;21.00;65.70;;;;;;5127360;27;20220;-64
2023/04/29 07:19:59;;;;;;;1.02;0.93;;;20.90;65.60;;;;;;5122546;27;20205;-64
2023/04/29 07:22:26;;;;;;;1.15;0.90;;;21.00;65.90;;;;;;5117951;27;20364;-63
2023/04/29 07:24:55;;;;;;;0.90;0.80;;;20.90;65.70;;;;;;5122274;27;20189;-64
2023/04/29 07:27:22;;;;;;;1.08;0.98;;;20.90;65.70;;;;;;5123309;27;20208;-63
2023/04/29 07:29:49;;;;;;;0.90;0.80;;;20.90;65.60;;;;;;5128550;27;20610;-64
2023/04/29 07:32:16;;;;;;;1.00;0.88;;;21.00;65.90;;;;;;5123531;27;20849;-63
2023/04/29 07:34:43;;;;;;;1.02;0.80;;;20.90;65.70;;;;;;5129493;27;20656;-63
2023/04/29 07:37:09;;;;;;;1.00;0.85;;;20.90;65.90;;;;;;5122648;27;20701;-63
2023/04/29 07:39:36;;;;;;;0.90;0.80;;;20.90;65.90;;;;;;5115870;27;20315;-63
2023/04/29 07:42:04;;;;;;;4.90;0.70;;;20.90;65.80;;;;;;5128520;27;20208;-64
2023/04/29 07:44:31;;;;;;;0.90;0.70;;;20.90;65.80;;;;;;5123140;27;20833;-62
2023/04/29 07:46:57;;;;;;;1.00;0.90;;;20.90;65.70;;;;;;5118169;27;20641;-63
2023/04/29 07:49:25;;;;;;;1.00;0.80;;;20.90;65.80;;;;;;5113758;27;20759;-62
2023/04/29 07:51:51;;;;;;;0.90;0.80;;;21.00;66.00;;;;;;5122089;27;20330;-62
2023/04/29 07:54:18;;;;;;;1.10;1.00;;;20.90;65.80;;;;;;5128103;27;20223;-63
2023/04/29 07:56:45;;;;;;;1.10;1.00;;;20.90;65.90;;;;;;5116930;27;20197;-63
2023/04/29 07:59:13;;;;;;;3.63;1.05;;;21.00;66.30;;;;;;5120612;27;20778;-61
2023/04/29 08:01:41;;;;;;;1.83;0.77;;;21.00;66.20;;;;;;5120960;27;20209;-60
2023/04/29 08:04:07;;;;;;;1.48;1.10;;;21.10;66.40;;;;;;5126659;27;20188;-62
2023/04/29 08:06:34;;;;;;;1.00;0.90;;;21.10;66.50;;;;;;5112877;27;20276;-59
2023/04/29 08:09:01;;;;;;;1.42;1.00;;;21.10;66.60;;;;;;5128064;27;20626;-59
2023/04/29 08:11:28;;;;;;;1.48;1.38;;;21.10;66.80;;;;;;5124708;27;20588;-60
2023/04/29 08:13:56;;;;;;;0.95;0.80;;;21.10;66.90;;;;;;5115292;27;20193;-57
2023/04/29 08:16:25;;;;;;;1.75;0.90;;;21.10;66.90;;;;;;5112522;27;20287;-61
2023/04/29 08:18:52;;;;;;;0.90;0.80;;;21.10;67.10;;;;;;5125285;27;20197;-60
2023/04/29 08:21:19;;;;;;;1.00;0.90;;;21.10;67.00;;;;;;5116875;27;20197;-60
2023/04/29 08:23:45;;;;;;;1.05;0.93;;;21.10;67.10;;;;;;5114758;27;20684;-61
2023/04/29 08:26:12;;;;;;;1.00;0.82;;;21.20;67.30;;;;;;5127453;27;20199;-60
2023/04/29 08:28:39;;;;;;;1.13;0.90;;;21.20;67.40;;;;;;5119683;27;20288;-62
2023/04/29 08:31:06;;;;;;;1.10;0.90;;;21.20;67.50;;;;;;5116611;27;20696;-62
2023/04/29 08:33:35;;;;;;;9.68;8.68;;;21.20;67.60;;;;;;5120865;27;20194;-62
2023/04/29 08:36:02;;;;;;;10.02;7.70;;;21.10;67.50;;;;;;5112538;27;20201;-62
2023/04/29 08:38:29;;;;;;;5.85;3.70;;;21.10;67.90;;;;;;5113273;27;20353;-58
2023/04/29 08:40:56;;;;;;;8.40;2.85;;;21.10;68.10;;;;;;5122668;27;20189;-62
2023/04/29 08:43:24;;;;;;;2.00;1.88;;;21.10;68.10;;;;;;5123852;27;20196;-63
2023/04/29 08:45:51;;;;;;;2.38;2.15;;;21.20;68.20;;;;;;5108701;27;20193;-61
2023/04/29 08:48:18;;;;;;;3.45;2.00;;;21.20;68.40;;;;;;5120438;27;20196;-58
2023/04/29 08:50:46;;;;;;;2.53;1.77;;;21.20;68.20;;;;;;5122335;27;20196;-59
2023/04/29 08:53:14;;;;;;;1.90;1.50;;;21.20;68.40;;;;;;5117144;27;20609;-60
2023/04/29 08:55:42;;;;;;;3.08;2.28;;;21.20;68.20;;;;;;5117604;27;20242;-59
2023/04/29 08:58:10;;;;;;;2.42;2.00;;;21.20;68.10;;;;;;5124659;27;20197;-59
2023/04/29 09:00:38;;;;;;;4.03;3.60;;;21.10;68.10;;;;;;5106411;27;20225;-62
2023/04/29 09:03:14;;;;;;;2.70;2.50;;;21.10;68.10;;;;;;5110287;27;20667;-61
2023/04/29 09:05:43;;;;;;;2.10;1.90;;;21.10;67.90;;;;;;5107969;27;20202;-61
2023/04/29 09:08:12;;;;;;;2.40;2.20;;;21.10;68.10;;;;;;5111682;27;20216;-61
2023/04/29 09:10:41;;;;;;;1.80;1.70;;;21.10;68.10;;;;;;5123287;27;20280;-61
2023/04/29 09:13:08;;;;;;;2.78;1.90;;;21.10;68.00;;;;;;5118222;27;20262;-61
2023/04/29 09:15:36;;;;;;;3.00;1.67;;;21.10;67.90;;;;;;5121752;27;20203;-59
2023/04/29 09:18:03;;;;;;;1.75;1.65;;;21.10;67.90;;;;;;5130686;27;20287;-61
2023/04/29 09:20:30;;;;;;;1.55;1.45;;;21.10;67.80;;;;;;5127708;27;20283;-60
2023/04/29 09:23:00;;;;;;;2.58;1.92;;;21.10;67.60;;;;;;5129430;27;20213;-62
2023/04/29 09:25:28;;;;;;;1.55;1.45;;;21.10;67.60;;;;;;5120179;27;20312;-61
2023/04/29 09:27:55;;;;;;;2.20;1.60;;;21.10;67.50;;;;;;5124359;27;20246;-61
2023/04/29 09:30:22;;;;;;;1.70;1.60;;;21.10;67.50;;;;;;5117463;27;20583;-61
2023/04/29 09:33:06;;;;;;;1.50;1.40;;;21.10;67.50;;;;;;5118820;27;20220;-61
2023/04/29 09:35:32;;;;;;;2.20;1.55;;;21.10;67.40;;;;;;5120280;27;20196;-60
2023/04/29 09:38:13;;;;;;;3.60;1.92;;;21.10;67.40;;;;;;5124902;27;20192;-61
2023/04/29 09:40:42;;;;;;;1.80;1.70;;;21.10;67.30;;;;;;5110841;27;20774;-59
2023/04/29 09:43:14;;;;;;;2.53;1.65;;;21.10;67.40;;;;;;5122468;27;20240;-60
2023/04/29 09:45:42;;;;;;;1.80;1.50;;;21.10;67.30;;;;;;5111118;27;20672;-60
2023/04/29 09:48:10;;;;;;;4.47;1.58;;;21.10;67.30;;;;;;5111894;27;20675;-61
2023/04/29 09:50:38;;;;;;;1.67;1.58;;;21.10;67.20;;;;;;5123198;28;20728;-61
2023/04/29 09:53:07;;;;;;;1.80;1.70;;;21.10;67.10;;;;;;5109709;28;20249;-61
2023/04/29 09:55:34;;;;;;;1.75;1.65;;;21.10;67.10;;;;;;5119289;28;20652;-61
2023/04/29 09:58:02;;;;;;;1.48;1.38;;;21.10;67.10;;;;;;5120893;28;20250;-60
2023/04/29 10:00:31;;;;;;;1.88;1.48;;;21.10;67.10;;;;;;5110816;28;20751;-61
2023/04/29 10:03:00;;;;;;;1.88;1.65;;;21.10;67.10;;;;;;5120871;28;20227;-60
2023/04/29 10:05:29;;;;;;;1.50;1.40;;;21.10;67.10;;;;;;5119936;27;20296;-61
2023/04/29 10:07:58;;;;;;;1.73;1.55;;;21.10;67.10;;;;;;5114018;27;20276;-61
2023/04/29 10:10:26;;;;;;;2.17;1.50;;;21.10;67.10;;;;;;5119806;27;20276;-61
2023/04/29 10:12:54;;;;;;;1.98;1.40;;;21.10;67.00;;;;;;5114577;27;20219;-61
2023/04/29 10:15:28;;;;;;;1.42;1.33;;;21.10;67.00;;;;;;5114900;27;20610;-61
2023/04/29 10:18:00;;;;;;;1.70;1.60;;;21.10;67.00;;;;;;5108652;28;20196;-61
2023/04/29 10:20:28;;;;;;;3.65;1.40;;;21.10;67.00;;;;;;5115721;28;20569;-61
2023/04/29 10:22:58;;;;;;;1.50;1.40;;;21.10;67.00;;;;;;5115867;28;20220;-60
2023/04/29 10:25:26;;;;;;;1.70;1.40;;;21.10;67.00;;;;;;5122146;28;20197;-61
2023/04/29 10:27:55;;;;;;;1.60;1.33;;;21.10;67.00;;;;;;5107815;28;20198;-61
2023/04/29 10:30:24;;;;;;;2.08;1.40;;;21.10;67.00;;;;;;5120690;28;20296;-61
2023/04/29 10:32:51;;;;;;;1.67;1.58;;;21.10;66.90;;;;;;5113549;28;20273;-61
2023/04/29 10:35:22;;;;;;;1.40;1.30;;;21.10;67.00;;;;;;5126342;28;20218;-61
2023/04/29 10:37:49;;;;;;;1.70;1.60;;;21.10;66.90;;;;;;5116018;28;20205;-61
2023/04/29 10:40:22;;;;;;;1.45;1.35;;;21.10;66.90;;;;;;5124787;28;20204;-61
2023/04/29 10:42:50;;;;;;;1.30;1.20;;;21.10;66.90;;;;;;5116664;27;20254;-61
2023/04/29 10:45:27;;;;;;;1.60;1.50;;;21.10;66.90;;;;;;5118272;27;20189;-61
2023/04/29 10:48:14;;;;;;;1.70;1.25;;;21.10;66.90;;;;;;5113706;28;20200;-60
2023/04/29 10:51:04;;;;;;;1.63;1.52;;;21.10;66.80;;;;;;5117315;27;20197;-60
2023/04/29 10:53:31;;;;;;;4.65;4.20;;;21.10;66.80;;;;;;5107577;28;20228;-56
2023/04/29 10:56:04;;;;;;;12.15;6.53;;;21.10;66.40;;;;;;5117577;27;20199;-58
2023/04/29 10:58:38;;;;;;;11.82;8.00;;;21.00;65.70;;;;;;5123807;27;20254;-62
2023/04/29 11:01:09;;;;;;;9.70;8.50;;;21.00;65.40;;;;;;5106997;27;20193;-61
2023/04/29 11:03:53;;;;;;;10.95;8.57;;;21.00;65.90;;;;;;5118188;27;20724;-61
2023/04/29 11:06:22;;;;;;;17.13;10.00;;;21.00;66.00;;;;;;5123686;27;20392;-64
2023/04/29 11:08:59;;;;;;;13.57;10.77;;;20.90;65.70;;;;;;5121114;27;20944;-57
2023/04/29 11:11:27;;;;;;;11.40;9.57;;;20.90;65.60;;;;;;5104466;27;20201;-63
2023/04/29 11:13:54;;;;;;;16.20;9.02;;;20.90;65.60;;;;;;5114702;27;20276;-61
2023/04/29 11:16:27;;;;;;;12.85;10.30;;;20.90;65.50;;;;;;5120267;27;20254;-62
2023/04/29 11:19:08;;;;;;;9.75;8.77;;;20.80;65.40;;;;;;5123357;27;20280;-60
2023/04/29 11:21:35;;;;;;;9.73;8.57;;;20.80;65.20;;;;;;5114679;27;20461;-63
2023/04/29 11:24:03;;;;;;;10.95;9.15;;;20.80;65.00;;;;;;5112905;27;20193;-64
2023/04/29 11:26:30;;;;;;;10.52;9.35;;;20.80;64.50;;;;;;5126598;27;20192;-65
2023/04/29 11:28:57;;;;;;;10.45;8.73;;;20.70;64.30;;;;;;5115207;27;20262;-60
2023/04/29 11:31:30;;;;;;;10.35;9.35;;;20.70;64.30;;;;;;5112128;27;20703;-63
2023/04/29 11:33:57;;;;;;;9.38;7.85;;;20.70;64.10;;;;;;5108767;27;20244;-64
2023/04/29 11:36:25;;;;;;;9.57;8.68;;;20.70;64.00;;;;;;5123444;27;20193;-66
2023/04/29 11:38:51;;;;;;;9.60;8.23;;;20.70;64.00;;;;;;5114850;27;20207;-66
2023/04/29 11:41:18;;;;;;;8.70;7.55;;;20.70;63.90;;;;;;5122584;27;20258;-64
2023/04/29 11:43:46;;;;;;;9.65;8.65;;;20.70;63.80;;;;;;5115480;27;20262;-64
2023/04/29 11:46:14;;;;;;;15.23;9.48;;;20.70;63.70;;;;;;5119166;27;20661;-67
2023/04/29 11:48:48;;;;;;;8.63;7.80;;;20.70;63.50;;;;;;5125080;27;20222;-66
2023/04/29 11:51:15;;;;;;;6.97;6.03;;;20.80;64.10;;;;;;5122860;27;20280;-67
2023/04/29 11:53:42;;;;;;;5.88;5.30;;;20.80;64.30;;;;;;5110982;27;20703;-66
2023/04/29 11:56:09;;;;;;;8.52;4.97;;;21.00;64.60;;;;;;5117761;27;20607;-66
2023/04/29 11:58:36;;;;;;;6.03;3.97;;;21.00;64.70;;;;;;5118304;27;20185;-64
2023/04/29 12:01:04;;;;;;;5.53;3.72;;;21.10;64.90;;;;;;5117488;27;20253;-65
2023/04/29 12:03:32;;;;;;;3.55;3.22;;;21.20;65.00;;;;;;5120772;27;20201;-60
2023/04/29 12:06:02;;;;;;;4.97;3.65;;;21.30;65.20;;;;;;5120893;27;20199;-63
2023/04/29 12:08:30;;;;;;;4.60;2.65;;;21.30;65.20;;;;;;5117584;27;20203;-63
2023/04/29 12:10:57;;;;;;;5.00;2.50;;;21.40;65.40;;;;;;5109423;27;20188;-64
2023/04/29 12:13:26;;;;;;;4.28;2.30;;;21.40;65.30;;;;;;5119120;27;20217;-58
2023/04/29 12:15:53;;;;;;;3.15;2.72;;;21.50;65.40;;;;;;5118396;27;20193;-60
2023/04/29 12:18:22;;;;;;;2.23;2.03;;;21.50;65.40;;;;;;5115606;27;20200;-65
2023/04/29 12:20:50;;;;;;;3.20;2.03;;;21.60;65.50;;;;;;5113376;27;20542;-70
2023/04/29 12:23:21;;;;;;;2.67;1.90;;;21.60;65.50;;;;;;5110386;27;20504;-69
2023/04/29 12:25:50;;;;;;;2.73;1.93;;;21.70;65.60;;;;;;5106447;27;20458;-70
2023/04/29 12:28:18;;;;;;;3.17;1.90;;;21.70;65.60;;;;;;5117841;27;20478;-69
2023/04/29 12:30:45;;;;;;;1.77;1.67;;;21.80;65.70;;;;;;5113370;27;20540;-72
2023/04/29 12:33:16;;;;;;;3.50;1.83;;;21.80;65.70;;;;;;5117234;27;20520;-66
2023/04/29 12:35:42;;;;;;;3.30;2.10;;;21.80;65.70;;;;;;5127755;27;20502;-64
2023/04/29 12:38:10;;;;;;;2.43;1.80;;;21.90;65.80;;;;;;5123861;27;20463;-64
2023/04/29 12:40:38;;;;;;;1.97;1.73;;;21.90;65.70;;;;;;5122851;27;20607;-60
2023/04/29 12:43:08;;;;;;;2.03;1.83;;;21.90;65.70;;;;;;5120342;27;20977;-62
2023/04/29 12:45:35;;;;;;;2.17;1.97;;;22.00;65.90;;;;;;5116743;27;20566;-62
2023/04/29 12:48:03;;;;;;;2.20;1.67;;;21.90;65.70;;;;;;5121480;27;20450;-63
2023/04/29 12:50:32;;;;;;;1.97;1.77;;;22.00;65.80;;;;;;5124070;27;20469;-63